CheckWX is a tool to help pilots better visualize weather data.  It is not intended as a substitute for an official pre-flight weather briefing.

12:21:31 UTC

PAGA TAF
Edward G Pitka Sr Airport
Galena, Alaska, USA
PAGA 271129Z 2712/2812 VRB03KT P6SM VCSH BKN050 OVC100 FM272200 07008KT P6SM VCSH SCT050 OVC120 FM280000 07008KT P6SM SCT120

Jun-27@
12:00 UTC

Jun-27 @ 12:00 UTC

Jun-27@
22:00 UTC

Jun-27 @ 22:00 UTC

PAGA 271129Z 2712/2812 VRB03KT P6SM VCSH BKN050 OVC100
Wind
  • Variable at 3 KTS
Cloud Levels
  • Broken at 5,000' AGL
  • Overcast at 10,000' AGL

Jun-27@
22:00 UTC

Jun-27 @ 22:00 UTC

Jun-28@
00:00 UTC

Jun-28 @ 00:00 UTC

FM272200 07008KT P6SM VCSH SCT050 OVC120

From

From Standard forecast or significant change

Wind
  • 070° at 8 KTS
Cloud Levels
  • Scattered at 5,000' AGL
  • Overcast at 12,000' AGL

Jun-28@
00:00 UTC

Jun-28 @ 00:00 UTC

Jun-28@
12:00 UTC

Jun-28 @ 12:00 UTC

FM280000 07008KT P6SM SCT120

From

From Standard forecast or significant change

Wind
  • 070° at 8 KTS
Cloud Levels
  • Scattered at 12,000' AGL